sensor_id;sensor_type;location;lat;lon;timestamp;temperature;humidity
5647;DHT22;2845;48.626;9.362;2023-06-26T00:01:28;17.30;89.90
5647;DHT22;2845;48.626;9.362;2023-06-26T00:04:04;17.30;90.30
5647;DHT22;2845;48.626;9.362;2023-06-26T00:06:38;17.30;90.50
5647;DHT22;2845;48.626;9.362;2023-06-26T00:09:12;17.30;90.50
5647;DHT22;2845;48.626;9.362;2023-06-26T00:11:48;17.30;90.50
5647;DHT22;2845;48.626;9.362;2023-06-26T00:14:22;17.10;90.70
5647;DHT22;2845;48.626;9.362;2023-06-26T00:16:56;17.10;90.70
5647;DHT22;2845;48.626;9.362;2023-06-26T00:19:30;17.00;91.00
5647;DHT22;2845;48.626;9.362;2023-06-26T00:22:05;17.00;91.10
5647;DHT22;2845;48.626;9.362;2023-06-26T00:24:40;17.10;91.10
5647;DHT22;2845;48.626;9.362;2023-06-26T00:27:15;17.10;91.30
5647;DHT22;2845;48.626;9.362;2023-06-26T00:29:50;18.20;91.50
5647;DHT22;2845;48.626;9.362;2023-06-26T00:32:25;17.00;91.20
5647;DHT22;2845;48.626;9.362;2023-06-26T00:34:59;16.90;91.70
5647;DHT22;2845;48.626;9.362;2023-06-26T00:37:34;16.90;91.80
5647;DHT22;2845;48.626;9.362;2023-06-26T00:40:09;16.90;91.90
5647;DHT22;2845;48.626;9.362;2023-06-26T00:42:45;16.90;91.70
5647;DHT22;2845;48.626;9.362;2023-06-26T00:45:19;16.90;91.80
5647;DHT22;2845;48.626;9.362;2023-06-26T00:48:10;16.80;92.00
5647;DHT22;2845;48.626;9.362;2023-06-26T00:50:45;16.70;91.90
5647;DHT22;2845;48.626;9.362;2023-06-26T00:53:19;16.70;92.10
5647;DHT22;2845;48.626;9.362;2023-06-26T00:55:54;16.70;92.00
5647;DHT22;2845;48.626;9.362;2023-06-26T00:58:30;16.70;92.20
5647;DHT22;2845;48.626;9.362;2023-06-26T01:01:04;16.70;92.50
5647;DHT22;2845;48.626;9.362;2023-06-26T01:03:42;16.80;92.30
5647;DHT22;2845;48.626;9.362;2023-06-26T01:06:18;16.60;92.40
5647;DHT22;2845;48.626;9.362;2023-06-26T01:08:54;16.60;92.50
5647;DHT22;2845;48.626;9.362;2023-06-26T01:11:28;16.60;92.40
5647;DHT22;2845;48.626;9.362;2023-06-26T01:14:04;16.50;92.20
5647;DHT22;2845;48.626;9.362;2023-06-26T01:16:39;16.50;92.40
5647;DHT22;2845;48.626;9.362;2023-06-26T01:19:19;16.50;92.60
5647;DHT22;2845;48.626;9.362;2023-06-26T01:22:14;16.40;92.40
5647;DHT22;2845;48.626;9.362;2023-06-26T01:25:01;16.40;92.40
5647;DHT22;2845;48.626;9.362;2023-06-26T01:27:39;16.20;92.80
5647;DHT22;2845;48.626;9.362;2023-06-26T01:30:16;16.30;92.70
5647;DHT22;2845;48.626;9.362;2023-06-26T01:32:51;16.30;92.90
5647;DHT22;2845;48.626;9.362;2023-06-26T01:35:26;16.20;93.00
5647;DHT22;2845;48.626;9.362;2023-06-26T01:38:14;16.20;93.20
5647;DHT22;2845;48.626;9.362;2023-06-26T01:40:50;17.00;93.40
5647;DHT22;2845;48.626;9.362;2023-06-26T01:43:29;15.90;93.30
5647;DHT22;2845;48.626;9.362;2023-06-26T01:46:11;16.00;93.60
5647;DHT22;2845;48.626;9.362;2023-06-26T01:48:57;16.00;93.40
5647;DHT22;2845;48.626;9.362;2023-06-26T01:51:39;15.90;93.40
5647;DHT22;2845;48.626;9.362;2023-06-26T01:54:18;16.00;93.80
5647;DHT22;2845;48.626;9.362;2023-06-26T01:56:55;16.20;93.60
5647;DHT22;2845;48.626;9.362;2023-06-26T01:59:33;15.80;93.60
5647;DHT22;2845;48.626;9.362;2023-06-26T02:02:08;15.80;93.80
5647;DHT22;2845;48.626;9.362;2023-06-26T02:04:42;15.70;94.00
5647;DHT22;2845;48.626;9.362;2023-06-26T02:07:16;15.70;94.10
5647;DHT22;2845;48.626;9.362;2023-06-26T02:09:51;15.60;94.20
5647;DHT22;2845;48.626;9.362;2023-06-26T02:12:25;15.60;94.50
5647;DHT22;2845;48.626;9.362;2023-06-26T02:15:00;15.60;94.50
5647;DHT22;2845;48.626;9.362;2023-06-26T02:17:35;15.60;94.80
5647;DHT22;2845;48.626;9.362;2023-06-26T02:20:09;15.50;94.80
5647;DHT22;2845;48.626;9.362;2023-06-26T02:22:44;15.50;94.70
5647;DHT22;2845;48.626;9.362;2023-06-26T02:25:18;15.40;94.90
5647;DHT22;2845;48.626;9.362;2023-06-26T02:27:52;15.50;95.20
5647;DHT22;2845;48.626;9.362;2023-06-26T02:30:29;15.50;95.20
5647;DHT22;2845;48.626;9.362;2023-06-26T02:33:03;15.50;95.10
5647;DHT22;2845;48.626;9.362;2023-06-26T02:35:37;15.50;95.30
5647;DHT22;2845;48.626;9.362;2023-06-26T02:38:11;15.50;95.20
5647;DHT22;2845;48.626;9.362;2023-06-26T02:40:45;15.50;95.30
5647;DHT22;2845;48.626;9.362;2023-06-26T02:43:20;15.50;95.10
5647;DHT22;2845;48.626;9.362;2023-06-26T02:45:55;15.40;95.20
5647;DHT22;2845;48.626;9.362;2023-06-26T02:48:29;15.40;95.20
5647;DHT22;2845;48.626;9.362;2023-06-26T02:51:03;15.30;95.20
5647;DHT22;2845;48.626;9.362;2023-06-26T02:53:38;15.40;95.50
5647;DHT22;2845;48.626;9.362;2023-06-26T02:56:12;15.40;95.50
5647;DHT22;2845;48.626;9.362;2023-06-26T02:58:46;15.40;95.30
5647;DHT22;2845;48.626;9.362;2023-06-26T03:01:22;15.30;95.10
5647;DHT22;2845;48.626;9.362;2023-06-26T03:03:56;15.30;95.20
5647;DHT22;2845;48.626;9.362;2023-06-26T03:06:33;15.30;95.60
5647;DHT22;2845;48.626;9.362;2023-06-26T03:09:07;15.30;95.50
5647;DHT22;2845;48.626;9.362;2023-06-26T03:11:41;15.30;95.60
5647;DHT22;2845;48.626;9.362;2023-06-26T03:14:16;15.20;95.50
5647;DHT22;2845;48.626;9.362;2023-06-26T03:16:51;15.20;95.80
5647;DHT22;2845;48.626;9.362;2023-06-26T03:19:28;15.10;95.80
5647;DHT22;2845;48.626;9.362;2023-06-26T03:22:03;15.10;95.80
5647;DHT22;2845;48.626;9.362;2023-06-26T03:24:38;15.10;95.80
5647;DHT22;2845;48.626;9.362;2023-06-26T03:27:12;15.00;95.70
5647;DHT22;2845;48.626;9.362;2023-06-26T03:29:49;15.20;95.80
5647;DHT22;2845;48.626;9.362;2023-06-26T03:32:25;15.00;96.10
5647;DHT22;2845;48.626;9.362;2023-06-26T03:34:59;15.00;96.00
5647;DHT22;2845;48.626;9.362;2023-06-26T03:37:38;15.00;96.20
5647;DHT22;2845;48.626;9.362;2023-06-26T03:40:13;15.00;96.00
5647;DHT22;2845;48.626;9.362;2023-06-26T03:42:47;15.00;96.00
5647;DHT22;2845;48.626;9.362;2023-06-26T03:45:21;15.00;96.00
5647;DHT22;2845;48.626;9.362;2023-06-26T03:47:57;13.00;95.70
5647;DHT22;2845;48.626;9.362;2023-06-26T03:50:31;15.10;96.20
5647;DHT22;2845;48.626;9.362;2023-06-26T03:53:05;15.10;96.30
5647;DHT22;2845;48.626;9.362;2023-06-26T03:55:39;15.20;96.10
5647;DHT22;2845;48.626;9.362;2023-06-26T03:58:14;15.20;96.10
5647;DHT22;2845;48.626;9.362;2023-06-26T04:00:48;15.30;96.00
5647;DHT22;2845;48.626;9.362;2023-06-26T04:03:23;15.10;96.10
5647;DHT22;2845;48.626;9.362;2023-06-26T04:05:58;16.70;96.30
5647;DHT22;2845;48.626;9.362;2023-06-26T04:08:32;15.30;96.00
5647;DHT22;2845;48.626;9.362;2023-06-26T04:11:06;15.30;96.00
5647;DHT22;2845;48.626;9.362;2023-06-26T04:13:40;15.30;95.90
5647;DHT22;2845;48.626;9.362;2023-06-26T04:16:14;15.30;96.00
5647;DHT22;2845;48.626;9.362;2023-06-26T04:18:50;15.30;95.80
5647;DHT22;2845;48.626;9.362;2023-06-26T04:21:25;15.20;95.70
5647;DHT22;2845;48.626;9.362;2023-06-26T04:23:59;15.30;96.00
5647;DHT22;2845;48.626;9.362;2023-06-26T04:26:33;15.40;96.10
5647;DHT22;2845;48.626;9.362;2023-06-26T04:29:07;15.50;96.00
5647;DHT22;2845;48.626;9.362;2023-06-26T04:31:41;15.50;96.10
5647;DHT22;2845;48.626;9.362;2023-06-26T04:34:20;15.50;95.90
5647;DHT22;2845;48.626;9.362;2023-06-26T04:36:55;15.60;95.80
5647;DHT22;2845;48.626;9.362;2023-06-26T04:39:29;15.70;96.00
5647;DHT22;2845;48.626;9.362;2023-06-26T04:42:04;15.80;95.80
5647;DHT22;2845;48.626;9.362;2023-06-26T04:44:39;15.90;95.90
5647;DHT22;2845;48.626;9.362;2023-06-26T04:47:14;16.20;95.80
5647;DHT22;2845;48.626;9.362;2023-06-26T04:49:50;16.10;95.90
5647;DHT22;2845;48.626;9.362;2023-06-26T04:52:24;16.20;95.70
5647;DHT22;2845;48.626;9.362;2023-06-26T04:54:59;16.30;95.50
5647;DHT22;2845;48.626;9.362;2023-06-26T04:57:33;16.50;95.50
5647;DHT22;2845;48.626;9.362;2023-06-26T05:00:08;16.60;95.50
5647;DHT22;2845;48.626;9.362;2023-06-26T05:02:43;16.70;95.40
5647;DHT22;2845;48.626;9.362;2023-06-26T05:05:19;16.90;95.40
5647;DHT22;2845;48.626;9.362;2023-06-26T05:07:57;17.20;95.20
5647;DHT22;2845;48.626;9.362;2023-06-26T05:10:31;17.10;94.90
5647;DHT22;2845;48.626;9.362;2023-06-26T05:13:05;17.30;94.80
5647;DHT22;2845;48.626;9.362;2023-06-26T05:15:39;17.40;94.70
5647;DHT22;2845;48.626;9.362;2023-06-26T05:18:13;17.60;94.50
5647;DHT22;2845;48.626;9.362;2023-06-26T05:20:50;17.70;94.40
5647;DHT22;2845;48.626;9.362;2023-06-26T05:23:25;17.90;94.20
5647;DHT22;2845;48.626;9.362;2023-06-26T05:26:01;18.10;94.00
5647;DHT22;2845;48.626;9.362;2023-06-26T05:28:36;18.20;93.50
5647;DHT22;2845;48.626;9.362;2023-06-26T05:31:11;18.40;93.30
5647;DHT22;2845;48.626;9.362;2023-06-26T05:33:46;18.60;93.30
5647;DHT22;2845;48.626;9.362;2023-06-26T05:36:24;18.80;93.20
5647;DHT22;2845;48.626;9.362;2023-06-26T05:38:59;18.90;93.00
5647;DHT22;2845;48.626;9.362;2023-06-26T05:41:34;19.10;92.90
5647;DHT22;2845;48.626;9.362;2023-06-26T05:44:08;17.70;92.30
5647;DHT22;2845;48.626;9.362;2023-06-26T05:46:43;19.50;92.50
5647;DHT22;2845;48.626;9.362;2023-06-26T05:49:17;19.70;92.00
5647;DHT22;2845;48.626;9.362;2023-06-26T05:51:53;19.80;91.70
5647;DHT22;2845;48.626;9.362;2023-06-26T05:54:28;19.90;91.50
5647;DHT22;2845;48.626;9.362;2023-06-26T05:57:03;20.10;91.20
5647;DHT22;2845;48.626;9.362;2023-06-26T05:59:40;20.20;90.90
5647;DHT22;2845;48.626;9.362;2023-06-26T06:02:14;20.40;90.80
5647;DHT22;2845;48.626;9.362;2023-06-26T06:04:49;20.50;90.60
5647;DHT22;2845;48.626;9.362;2023-06-26T06:07:24;20.60;90.30
5647;DHT22;2845;48.626;9.362;2023-06-26T06:09:59;20.70;90.20
5647;DHT22;2845;48.626;9.362;2023-06-26T06:12:33;21.20;90.20
5647;DHT22;2845;48.626;9.362;2023-06-26T06:15:08;21.10;89.70
5647;DHT22;2845;48.626;9.362;2023-06-26T06:17:42;21.30;89.50
5647;DHT22;2845;48.626;9.362;2023-06-26T06:20:17;21.50;89.00
5647;DHT22;2845;48.626;9.362;2023-06-26T06:22:53;21.70;88.30
5647;DHT22;2845;48.626;9.362;2023-06-26T06:25:27;21.80;87.80
5647;DHT22;2845;48.626;9.362;2023-06-26T06:28:02;21.80;87.40
5647;DHT22;2845;48.626;9.362;2023-06-26T06:30:37;22.00;87.10
5647;DHT22;2845;48.626;9.362;2023-06-26T06:33:18;22.50;86.60
5647;DHT22;2845;48.626;9.362;2023-06-26T06:35:52;22.40;85.90
5647;DHT22;2845;48.626;9.362;2023-06-26T06:38:27;22.50;85.10
5647;DHT22;2845;48.626;9.362;2023-06-26T06:41:01;22.70;85.20
5647;DHT22;2845;48.626;9.362;2023-06-26T06:43:36;22.80;84.50
5647;DHT22;2845;48.626;9.362;2023-06-26T06:46:10;22.90;83.80
5647;DHT22;2845;48.626;9.362;2023-06-26T06:48:44;23.10;83.50
5647;DHT22;2845;48.626;9.362;2023-06-26T06:51:19;23.30;82.80
5647;DHT22;2845;48.626;9.362;2023-06-26T06:53:54;23.60;82.50
5647;DHT22;2845;48.626;9.362;2023-06-26T06:56:28;23.60;81.80
5647;DHT22;2845;48.626;9.362;2023-06-26T06:59:02;23.80;81.90
5647;DHT22;2845;48.626;9.362;2023-06-26T07:01:37;24.00;81.40
5647;DHT22;2845;48.626;9.362;2023-06-26T07:04:11;24.10;80.90
5647;DHT22;2845;48.626;9.362;2023-06-26T07:06:45;24.20;80.30
5647;DHT22;2845;48.626;9.362;2023-06-26T07:09:21;24.40;80.20
5647;DHT22;2845;48.626;9.362;2023-06-26T07:11:55;24.50;79.70
5647;DHT22;2845;48.626;9.362;2023-06-26T07:14:29;24.70;79.50
5647;DHT22;2845;48.626;9.362;2023-06-26T07:17:03;24.80;79.00
5647;DHT22;2845;48.626;9.362;2023-06-26T07:19:38;24.90;78.70
5647;DHT22;2845;48.626;9.362;2023-06-26T07:22:12;25.00;78.30
5647;DHT22;2845;48.626;9.362;2023-06-26T07:24:48;25.10;78.00
5647;DHT22;2845;48.626;9.362;2023-06-26T07:27:22;25.10;77.70
5647;DHT22;2845;48.626;9.362;2023-06-26T07:29:56;25.20;76.90
5647;DHT22;2845;48.626;9.362;2023-06-26T07:32:30;25.20;76.80
5647;DHT22;2845;48.626;9.362;2023-06-26T07:35:05;25.30;76.80
5647;DHT22;2845;48.626;9.362;2023-06-26T07:37:39;25.50;76.60
5647;DHT22;2845;48.626;9.362;2023-06-26T07:40:15;25.70;75.90
5647;DHT22;2845;48.626;9.362;2023-06-26T07:42:51;25.80;75.50
5647;DHT22;2845;48.626;9.362;2023-06-26T07:45:26;25.80;75.10
5647;DHT22;2845;48.626;9.362;2023-06-26T07:48:00;25.90;74.90
5647;DHT22;2845;48.626;9.362;2023-06-26T07:50:34;25.90;74.50
5647;DHT22;2845;48.626;9.362;2023-06-26T07:53:09;25.90;74.40
5647;DHT22;2845;48.626;9.362;2023-06-26T07:55:45;25.90;74.30
5647;DHT22;2845;48.626;9.362;2023-06-26T07:58:19;26.00;74.40
5647;DHT22;2845;48.626;9.362;2023-06-26T08:00:53;26.00;74.30
5647;DHT22;2845;48.626;9.362;2023-06-26T08:03:27;26.30;74.20
5647;DHT22;2845;48.626;9.362;2023-06-26T08:06:07;26.40;73.70
5647;DHT22;2845;48.626;9.362;2023-06-26T08:08:44;26.50;73.90
5647;DHT22;2845;48.626;9.362;2023-06-26T08:11:20;26.60;73.70
5647;DHT22;2845;48.626;9.362;2023-06-26T08:13:54;26.70;73.40
5647;DHT22;2845;48.626;9.362;2023-06-26T08:16:28;26.90;73.50
5647;DHT22;2845;48.626;9.362;2023-06-26T08:19:02;27.00;73.40
5647;DHT22;2845;48.626;9.362;2023-06-26T08:21:36;27.20;73.20
5647;DHT22;2845;48.626;9.362;2023-06-26T08:24:11;27.30;72.90
5647;DHT22;2845;48.626;9.362;2023-06-26T08:26:47;27.70;72.90
5647;DHT22;2845;48.626;9.362;2023-06-26T08:29:22;27.80;72.70
5647;DHT22;2845;48.626;9.362;2023-06-26T08:31:56;27.80;72.20
5647;DHT22;2845;48.626;9.362;2023-06-26T08:34:30;27.90;71.60
5647;DHT22;2845;48.626;9.362;2023-06-26T08:37:05;28.00;71.60
5647;DHT22;2845;48.626;9.362;2023-06-26T08:39:42;28.10;71.40
5647;DHT22;2845;48.626;9.362;2023-06-26T08:42:17;28.30;71.30
5647;DHT22;2845;48.626;9.362;2023-06-26T08:44:51;28.50;70.90
5647;DHT22;2845;48.626;9.362;2023-06-26T08:47:35;29.80;71.30
5647;DHT22;2845;48.626;9.362;2023-06-26T08:50:13;28.60;70.10
5647;DHT22;2845;48.626;9.362;2023-06-26T08:52:53;28.60;69.80
5647;DHT22;2845;48.626;9.362;2023-06-26T08:55:31;28.60;69.50
5647;DHT22;2845;48.626;9.362;2023-06-26T08:58:09;28.80;69.60
5647;DHT22;2845;48.626;9.362;2023-06-26T09:00:45;28.80;69.50
5647;DHT22;2845;48.626;9.362;2023-06-26T09:03:19;29.00;68.90
5647;DHT22;2845;48.626;9.362;2023-06-26T09:05:54;30.00;69.00
5647;DHT22;2845;48.626;9.362;2023-06-26T09:08:28;29.30;68.30
5647;DHT22;2845;48.626;9.362;2023-06-26T09:11:02;29.40;68.00
5647;DHT22;2845;48.626;9.362;2023-06-26T09:13:38;29.70;67.60
5647;DHT22;2845;48.626;9.362;2023-06-26T09:16:13;30.70;68.20
5647;DHT22;2845;48.626;9.362;2023-06-26T09:18:47;30.30;67.80
5647;DHT22;2845;48.626;9.362;2023-06-26T09:21:21;30.30;65.70
5647;DHT22;2845;48.626;9.362;2023-06-26T09:23:58;30.30;66.40
5647;DHT22;2845;48.626;9.362;2023-06-26T09:26:32;30.70;66.00
5647;DHT22;2845;48.626;9.362;2023-06-26T09:29:09;30.90;66.10
5647;DHT22;2845;48.626;9.362;2023-06-26T09:31:44;31.10;65.90
5647;DHT22;2845;48.626;9.362;2023-06-26T09:34:18;31.30;65.10
5647;DHT22;2845;48.626;9.362;2023-06-26T09:36:53;31.30;64.60
5647;DHT22;2845;48.626;9.362;2023-06-26T09:39:29;31.50;64.70
5647;DHT22;2845;48.626;9.362;2023-06-26T09:42:04;31.70;64.50
5647;DHT22;2845;48.626;9.362;2023-06-26T09:44:45;31.80;63.80
5647;DHT22;2845;48.626;9.362;2023-06-26T09:47:19;31.80;64.10
5647;DHT22;2845;48.626;9.362;2023-06-26T09:49:56;31.80;63.60
5647;DHT22;2845;48.626;9.362;2023-06-26T09:52:31;31.90;64.10
5647;DHT22;2845;48.626;9.362;2023-06-26T09:55:07;32.20;63.50
5647;DHT22;2845;48.626;9.362;2023-06-26T09:57:42;32.40;63.30
5647;DHT22;2845;48.626;9.362;2023-06-26T10:00:20;32.40;62.60
5647;DHT22;2845;48.626;9.362;2023-06-26T10:02:55;32.20;62.20
5647;DHT22;2845;48.626;9.362;2023-06-26T10:05:30;32.20;62.10
5647;DHT22;2845;48.626;9.362;2023-06-26T10:08:04;33.60;62.80
5647;DHT22;2845;48.626;9.362;2023-06-26T10:10:40;32.10;62.10
5647;DHT22;2845;48.626;9.362;2023-06-26T10:13:16;32.10;61.70
5647;DHT22;2845;48.626;9.362;2023-06-26T10:15:57;31.90;61.80
5647;DHT22;2845;48.626;9.362;2023-06-26T10:18:36;34.30;63.60
5647;DHT22;2845;48.626;9.362;2023-06-26T10:21:13;33.10;62.40
5647;DHT22;2845;48.626;9.362;2023-06-26T10:23:48;31.40;61.50
5647;DHT22;2845;48.626;9.362;2023-06-26T10:26:24;31.40;62.20
5647;DHT22;2845;48.626;9.362;2023-06-26T10:29:00;31.80;61.70
5647;DHT22;2845;48.626;9.362;2023-06-26T10:31:37;34.10;62.80
5647;DHT22;2845;48.626;9.362;2023-06-26T10:34:16;32.20;61.30
5647;DHT22;2845;48.626;9.362;2023-06-26T10:36:59;31.80;61.60
5647;DHT22;2845;48.626;9.362;2023-06-26T10:39:50;31.80;63.40
5647;DHT22;2845;48.626;9.362;2023-06-26T10:42:36;31.60;63.30
5647;DHT22;2845;48.626;9.362;2023-06-26T10:45:28;32.60;63.50
5647;DHT22;2845;48.626;9.362;2023-06-26T10:48:20;30.90;61.90
5647;DHT22;2845;48.626;9.362;2023-06-26T10:51:14;30.90;61.60
5647;DHT22;2845;48.626;9.362;2023-06-26T10:54:16;30.50;62.20
5647;DHT22;2845;48.626;9.362;2023-06-26T10:57:04;30.50;62.50
5647;DHT22;2845;48.626;9.362;2023-06-26T10:59:43;30.40;61.80
5647;DHT22;2845;48.626;9.362;2023-06-26T11:02:18;30.90;61.00
5647;DHT22;2845;48.626;9.362;2023-06-26T11:04:59;30.90;62.30
5647;DHT22;2845;48.626;9.362;2023-06-26T11:07:34;30.80;61.30
5647;DHT22;2845;48.626;9.362;2023-06-26T11:10:09;29.40;63.50
5647;DHT22;2845;48.626;9.362;2023-06-26T11:12:44;31.00;64.50
5647;DHT22;2845;48.626;9.362;2023-06-26T11:15:21;31.60;65.10
5647;DHT22;2845;48.626;9.362;2023-06-26T11:17:58;30.20;65.00
5647;DHT22;2845;48.626;9.362;2023-06-26T11:20:37;30.00;65.40
5647;DHT22;2845;48.626;9.362;2023-06-26T11:23:13;30.20;65.20
5647;DHT22;2845;48.626;9.362;2023-06-26T11:25:56;30.00;64.80
5647;DHT22;2845;48.626;9.362;2023-06-26T11:28:31;30.60;64.50
5647;DHT22;2845;48.626;9.362;2023-06-26T11:31:23;31.00;65.40
5647;DHT22;2845;48.626;9.362;2023-06-26T11:34:02;29.00;62.60
5647;DHT22;2845;48.626;9.362;2023-06-26T11:36:42;31.50;64.50
5647;DHT22;2845;48.626;9.362;2023-06-26T11:39:19;31.70;63.70
5647;DHT22;2845;48.626;9.362;2023-06-26T11:41:54;34.10;65.10
5647;DHT22;2845;48.626;9.362;2023-06-26T11:44:32;32.20;63.70
5647;DHT22;2845;48.626;9.362;2023-06-26T11:47:15;32.60;63.60
5647;DHT22;2845;48.626;9.362;2023-06-26T11:49:50;32.00;64.00
5647;DHT22;2845;48.626;9.362;2023-06-26T11:52:26;31.90;63.30
5647;DHT22;2845;48.626;9.362;2023-06-26T11:55:00;33.40;64.00
5647;DHT22;2845;48.626;9.362;2023-06-26T11:57:35;31.10;62.50
5647;DHT22;2845;48.626;9.362;2023-06-26T12:00:13;32.10;62.80
5647;DHT22;2845;48.626;9.362;2023-06-26T12:02:49;32.40;62.20
5647;DHT22;2845;48.626;9.362;2023-06-26T12:05:25;32.90;63.60
5647;DHT22;2845;48.626;9.362;2023-06-26T12:08:01;32.10;62.70
5647;DHT22;2845;48.626;9.362;2023-06-26T12:10:39;31.70;63.10
5647;DHT22;2845;48.626;9.362;2023-06-26T12:13:14;32.30;63.20
5647;DHT22;2845;48.626;9.362;2023-06-26T12:15:49;28.40;60.30
5647;DHT22;2845;48.626;9.362;2023-06-26T12:18:24;32.50;63.40
5647;DHT22;2845;48.626;9.362;2023-06-26T12:20:59;32.40;63.00
5647;DHT22;2845;48.626;9.362;2023-06-26T12:23:39;32.40;61.40
5647;DHT22;2845;48.626;9.362;2023-06-26T12:26:17;32.20;61.60
5647;DHT22;2845;48.626;9.362;2023-06-26T12:28:52;32.10;62.20
5647;DHT22;2845;48.626;9.362;2023-06-26T12:31:26;32.00;60.60
5647;DHT22;2845;48.626;9.362;2023-06-26T12:34:01;32.10;61.90
5647;DHT22;2845;48.626;9.362;2023-06-26T12:36:40;32.70;62.60
5647;DHT22;2845;48.626;9.362;2023-06-26T12:39:17;32.50;62.10
5647;DHT22;2845;48.626;9.362;2023-06-26T12:41:56;34.80;62.50
5647;DHT22;2845;48.626;9.362;2023-06-26T12:44:32;32.70;62.40
5647;DHT22;2845;48.626;9.362;2023-06-26T12:47:06;32.40;61.50
5647;DHT22;2845;48.626;9.362;2023-06-26T12:49:43;31.40;60.00
5647;DHT22;2845;48.626;9.362;2023-06-26T12:52:19;30.70;61.40
5647;DHT22;2845;48.626;9.362;2023-06-26T12:54:55;32.00;62.00
5647;DHT22;2845;48.626;9.362;2023-06-26T12:57:30;32.10;63.80
5647;DHT22;2845;48.626;9.362;2023-06-26T13:00:06;34.80;65.00
5647;DHT22;2845;48.626;9.362;2023-06-26T13:02:43;32.10;62.10
5647;DHT22;2845;48.626;9.362;2023-06-26T13:05:19;32.00;61.60
5647;DHT22;2845;48.626;9.362;2023-06-26T13:07:53;32.30;63.70
5647;DHT22;2845;48.626;9.362;2023-06-26T13:10:29;33.60;64.30
5647;DHT22;2845;48.626;9.362;2023-06-26T13:13:04;32.30;63.90
5647;DHT22;2845;48.626;9.362;2023-06-26T13:15:51;32.60;64.10
5647;DHT22;2845;48.626;9.362;2023-06-26T13:18:36;31.80;62.50
5647;DHT22;2845;48.626;9.362;2023-06-26T13:21:10;29.80;61.00
5647;DHT22;2845;48.626;9.362;2023-06-26T13:23:45;31.50;62.30
5647;DHT22;2845;48.626;9.362;2023-06-26T13:26:22;31.80;63.80
5647;DHT22;2845;48.626;9.362;2023-06-26T13:29:07;32.10;61.40
5647;DHT22;2845;48.626;9.362;2023-06-26T13:31:48;32.50;62.30
5647;DHT22;2845;48.626;9.362;2023-06-26T13:34:23;32.30;61.90
5647;DHT22;2845;48.626;9.362;2023-06-26T13:37:01;32.50;62.60
5647;DHT22;2845;48.626;9.362;2023-06-26T13:39:35;32.70;62.20
5647;DHT22;2845;48.626;9.362;2023-06-26T13:42:11;32.40;63.20
5647;DHT22;2845;48.626;9.362;2023-06-26T13:44:46;32.60;62.20
5647;DHT22;2845;48.626;9.362;2023-06-26T13:47:34;32.80;62.50
5647;DHT22;2845;48.626;9.362;2023-06-26T13:50:10;32.60;63.70
5647;DHT22;2845;48.626;9.362;2023-06-26T13:52:45;33.80;65.20
5647;DHT22;2845;48.626;9.362;2023-06-26T13:55:20;33.00;64.30
5647;DHT22;2845;48.626;9.362;2023-06-26T13:57:57;32.40;63.60
5647;DHT22;2845;48.626;9.362;2023-06-26T14:00:32;34.00;65.50
5647;DHT22;2845;48.626;9.362;2023-06-26T14:03:07;33.40;63.80
5647;DHT22;2845;48.626;9.362;2023-06-26T14:05:42;31.90;62.80
5647;DHT22;2845;48.626;9.362;2023-06-26T14:08:16;31.90;62.30
5647;DHT22;2845;48.626;9.362;2023-06-26T14:10:51;34.70;64.20
5647;DHT22;2845;48.626;9.362;2023-06-26T14:13:27;32.80;63.10
5647;DHT22;2845;48.626;9.362;2023-06-26T14:16:01;35.10;64.40
5647;DHT22;2845;48.626;9.362;2023-06-26T14:18:38;31.70;62.60
5647;DHT22;2845;48.626;9.362;2023-06-26T14:21:12;31.80;62.50
5647;DHT22;2845;48.626;9.362;2023-06-26T14:23:47;32.00;61.90
5647;DHT22;2845;48.626;9.362;2023-06-26T14:26:21;35.30;63.70
5647;DHT22;2845;48.626;9.362;2023-06-26T14:28:57;32.20;62.00
5647;DHT22;2845;48.626;9.362;2023-06-26T14:31:31;32.40;61.80
5647;DHT22;2845;48.626;9.362;2023-06-26T14:34:05;32.70;61.60
5647;DHT22;2845;48.626;9.362;2023-06-26T14:36:39;32.40;61.20
5647;DHT22;2845;48.626;9.362;2023-06-26T14:39:13;32.30;60.70
5647;DHT22;2845;48.626;9.362;2023-06-26T14:41:48;33.60;61.80
5647;DHT22;2845;48.626;9.362;2023-06-26T14:44:24;32.20;61.20
5647;DHT22;2845;48.626;9.362;2023-06-26T14:46:59;32.20;60.30
5647;DHT22;2845;48.626;9.362;2023-06-26T14:49:33;33.10;60.10
5647;DHT22;2845;48.626;9.362;2023-06-26T14:52:08;32.50;59.50
5647;DHT22;2845;48.626;9.362;2023-06-26T14:54:43;32.70;58.50
5647;DHT22;2845;48.626;9.362;2023-06-26T14:57:17;32.80;59.00
5647;DHT22;2845;48.626;9.362;2023-06-26T14:59:52;33.00;58.40
5647;DHT22;2845;48.626;9.362;2023-06-26T15:02:26;33.80;59.50
5647;DHT22;2845;48.626;9.362;2023-06-26T15:05:01;33.20;57.90
5647;DHT22;2845;48.626;9.362;2023-06-26T15:07:35;33.10;57.70
5647;DHT22;2845;48.626;9.362;2023-06-26T15:10:10;33.20;58.70
5647;DHT22;2845;48.626;9.362;2023-06-26T15:12:44;33.20;58.40
5647;DHT22;2845;48.626;9.362;2023-06-26T15:15:19;33.40;57.00
5647;DHT22;2845;48.626;9.362;2023-06-26T15:17:55;33.70;56.70
5647;DHT22;2845;48.626;9.362;2023-06-26T15:20:29;33.80;56.30
5647;DHT22;2845;48.626;9.362;2023-06-26T15:23:03;33.90;56.10
5647;DHT22;2845;48.626;9.362;2023-06-26T15:25:37;33.70;56.40
5647;DHT22;2845;48.626;9.362;2023-06-26T15:28:12;34.10;56.80
5647;DHT22;2845;48.626;9.362;2023-06-26T15:30:47;33.00;56.90
5647;DHT22;2845;48.626;9.362;2023-06-26T15:33:22;32.30;57.20
5647;DHT22;2845;48.626;9.362;2023-06-26T15:35:56;32.00;57.80
5647;DHT22;2845;48.626;9.362;2023-06-26T15:38:30;31.60;58.50
5647;DHT22;2845;48.626;9.362;2023-06-26T15:41:04;31.50;57.60
5647;DHT22;2845;48.626;9.362;2023-06-26T15:43:39;31.20;58.50
5647;DHT22;2845;48.626;9.362;2023-06-26T15:46:15;31.20;59.20
5647;DHT22;2845;48.626;9.362;2023-06-26T15:48:50;31.00;59.60
5647;DHT22;2845;48.626;9.362;2023-06-26T15:51:24;30.90;59.60
5647;DHT22;2845;48.626;9.362;2023-06-26T15:53:58;30.80;59.90
5647;DHT22;2845;48.626;9.362;2023-06-26T15:56:32;30.70;59.20
5647;DHT22;2845;48.626;9.362;2023-06-26T15:59:07;30.60;60.10
5647;DHT22;2845;48.626;9.362;2023-06-26T16:01:42;30.50;59.60
5647;DHT22;2845;48.626;9.362;2023-06-26T16:04:18;30.50;60.00
5647;DHT22;2845;48.626;9.362;2023-06-26T16:06:54;30.30;60.00
5647;DHT22;2845;48.626;9.362;2023-06-26T16:09:29;30.20;59.80
5647;DHT22;2845;48.626;9.362;2023-06-26T16:12:03;30.10;59.80
5647;DHT22;2845;48.626;9.362;2023-06-26T16:14:38;30.00;60.20
5647;DHT22;2845;48.626;9.362;2023-06-26T16:17:14;29.80;60.30
5647;DHT22;2845;48.626;9.362;2023-06-26T16:19:48;29.60;60.60
5647;DHT22;2845;48.626;9.362;2023-06-26T16:22:22;29.50;60.50
5647;DHT22;2845;48.626;9.362;2023-06-26T16:24:57;28.00;60.10
5647;DHT22;2845;48.626;9.362;2023-06-26T16:27:31;29.50;60.70
5647;DHT22;2845;48.626;9.362;2023-06-26T16:30:06;29.40;60.60
5647;DHT22;2845;48.626;9.362;2023-06-26T16:32:43;29.40;60.70
5647;DHT22;2845;48.626;9.362;2023-06-26T16:35:17;29.40;60.50
5647;DHT22;2845;48.626;9.362;2023-06-26T16:37:52;29.40;60.60
5647;DHT22;2845;48.626;9.362;2023-06-26T16:40:27;29.40;60.10
5647;DHT22;2845;48.626;9.362;2023-06-26T16:43:01;29.30;60.80
5647;DHT22;2845;48.626;9.362;2023-06-26T16:45:35;29.20;60.70
5647;DHT22;2845;48.626;9.362;2023-06-26T16:48:11;29.00;60.80
5647;DHT22;2845;48.626;9.362;2023-06-26T16:50:46;29.20;60.40
5647;DHT22;2845;48.626;9.362;2023-06-26T16:53:21;28.90;61.00
5647;DHT22;2845;48.626;9.362;2023-06-26T16:55:56;29.00;61.80
5647;DHT22;2845;48.626;9.362;2023-06-26T16:58:31;28.70;61.90